createdAt,value
2023-03-03T00:01:47.877Z,25.60
2023-03-03T00:04:14.602Z,24.40
2023-03-03T00:06:41.222Z,25.70
2023-03-03T00:09:07.863Z,24.10
2023-03-03T00:11:34.821Z,25.60
2023-03-03T00:14:01.500Z,26.10
2023-03-03T00:16:37.404Z,27.10
2023-03-03T00:19:17.056Z,24.90
2023-03-03T00:21:49.360Z,24.20
2023-03-03T00:24:25.371Z,22.00
2023-03-03T00:26:56.664Z,23.00
2023-03-03T00:29:30.385Z,23.20
2023-03-03T00:32:50.166Z,23.70
2023-03-03T00:35:29.645Z,21.30
2023-03-03T00:38:10.353Z,22.20
2023-03-03T00:40:39.773Z,25.20
2023-03-03T00:43:24.989Z,26.20
2023-03-03T00:45:54.182Z,24.60
2023-03-03T00:48:37.755Z,24.60
2023-03-03T00:51:22.778Z,24.00
2023-03-03T00:53:50.285Z,23.90
2023-03-03T00:56:16.884Z,24.50
2023-03-03T00:58:47.547Z,24.90
2023-03-03T01:01:15.854Z,27.00
2023-03-03T01:03:42.701Z,23.10
2023-03-03T01:06:10.090Z,25.30
2023-03-03T01:08:36.851Z,24.90
2023-03-03T01:11:11.825Z,27.40
2023-03-03T01:13:41.733Z,26.50
2023-03-03T01:16:08.472Z,24.90
2023-03-03T01:18:36.188Z,23.70
2023-03-03T01:21:02.962Z,25.50
2023-03-03T01:23:29.578Z,26.70
2023-03-03T01:25:56.601Z,26.10
2023-03-03T01:28:23.198Z,25.80
2023-03-03T01:30:50.281Z,24.20
2023-03-03T01:33:17.212Z,25.50
2023-03-03T01:35:45.734Z,24.60
2023-03-03T01:38:13.806Z,26.60
2023-03-03T01:40:40.612Z,27.10
2023-03-03T01:43:07.808Z,24.80
2023-03-03T01:46:00.430Z,25.10
2023-03-03T01:48:36.904Z,23.20
2023-03-03T01:51:13.473Z,21.40
2023-03-03T01:53:56.292Z,22.30
2023-03-03T01:56:23.954Z,20.30
2023-03-03T01:59:02.994Z,24.10
2023-03-03T02:01:30.793Z,22.70
2023-03-03T02:03:57.499Z,23.80
2023-03-03T02:06:31.013Z,22.40
2023-03-03T02:09:36.396Z,20.20
2023-03-03T02:12:07.632Z,21.40
2023-03-03T02:14:34.685Z,19.70
2023-03-03T02:17:01.308Z,19.60
2023-03-03T02:19:54.804Z,21.00
2023-03-03T02:22:43.770Z,18.70
2023-03-03T02:25:15.871Z,21.10
2023-03-03T02:27:42.528Z,20.70
2023-03-03T02:30:15.277Z,20.20
2023-03-03T02:32:42.048Z,19.20
2023-03-03T02:35:31.781Z,16.60
2023-03-03T02:38:34.336Z,17.80
2023-03-03T02:41:38.258Z,18.40
2023-03-03T02:44:17.324Z,19.80
2023-03-03T02:46:47.520Z,17.40
2023-03-03T02:49:19.666Z,18.40
2023-03-03T02:51:46.332Z,18.70
2023-03-03T02:54:14.664Z,18.40
2023-03-03T02:56:41.551Z,18.20
2023-03-03T02:59:08.244Z,17.50
2023-03-03T03:01:38.086Z,18.60
2023-03-03T03:04:15.516Z,19.10
2023-03-03T03:06:43.144Z,22.70
2023-03-03T03:09:11.288Z,24.00
2023-03-03T03:11:38.561Z,20.60
2023-03-03T03:14:07.515Z,19.90
2023-03-03T03:16:34.998Z,17.00
2023-03-03T03:19:03.048Z,18.60
2023-03-03T03:21:30.456Z,21.30
2023-03-03T03:23:57.847Z,21.50
2023-03-03T03:26:24.433Z,21.10
2023-03-03T03:28:51.354Z,19.90
2023-03-03T03:31:19.580Z,20.50
2023-03-03T03:33:46.826Z,20.00
2023-03-03T03:36:13.664Z,18.90
2023-03-03T03:38:40.332Z,21.20
2023-03-03T03:41:07.435Z,22.70
2023-03-03T03:43:34.520Z,23.20
2023-03-03T03:46:01.289Z,22.70
2023-03-03T03:48:28.241Z,24.40
2023-03-03T03:50:55.332Z,23.50
2023-03-03T03:53:21.908Z,21.80
2023-03-03T03:55:48.746Z,21.00
2023-03-03T03:58:17.235Z,17.80
2023-03-03T04:00:45.475Z,17.80
2023-03-03T04:03:13.935Z,17.70
2023-03-03T04:05:41.149Z,17.50
2023-03-03T04:08:08.303Z,18.30
2023-03-03T04:10:34.940Z,19.40
2023-03-03T04:13:01.512Z,18.40
2023-03-03T04:15:28.143Z,20.00
2023-03-03T04:17:54.774Z,19.50
2023-03-03T04:20:21.432Z,18.50
2023-03-03T04:22:48.144Z,19.80
2023-03-03T04:25:16.863Z,20.80
2023-03-03T04:27:43.920Z,19.90
2023-03-03T04:30:12.712Z,19.50
2023-03-03T04:32:39.338Z,22.40
2023-03-03T04:35:10.517Z,18.70
2023-03-03T04:37:38.278Z,18.60
2023-03-03T04:40:08.964Z,21.40
2023-03-03T04:42:36.214Z,24.00
2023-03-03T04:45:04.781Z,21.10
2023-03-03T04:47:31.986Z,20.10
2023-03-03T04:49:58.753Z,22.30
2023-03-03T04:52:25.233Z,18.50
2023-03-03T04:54:51.797Z,18.90
2023-03-03T04:57:18.475Z,20.20
2023-03-03T04:59:45.347Z,18.10
2023-03-03T05:02:12.580Z,20.90
2023-03-03T05:04:39.172Z,20.70
2023-03-03T05:07:05.876Z,18.70
2023-03-03T05:09:32.798Z,19.00
2023-03-03T05:11:59.403Z,17.90
2023-03-03T05:14:26.858Z,19.00
2023-03-03T05:16:53.852Z,18.60
2023-03-03T05:19:20.513Z,17.70
2023-03-03T05:21:47.100Z,15.70
2023-03-03T05:24:14.108Z,15.00
2023-03-03T05:26:41.746Z,16.10
2023-03-03T05:29:08.990Z,16.00
2023-03-03T05:31:35.721Z,13.40
2023-03-03T05:34:02.721Z,15.80
2023-03-03T05:36:29.325Z,15.60
2023-03-03T05:38:56.005Z,14.60
2023-03-03T05:41:22.791Z,16.10
2023-03-03T05:43:49.457Z,17.80
2023-03-03T05:46:16.101Z,17.40
2023-03-03T05:48:42.665Z,14.20
2023-03-03T05:51:09.378Z,15.40
2023-03-03T05:53:36.083Z,15.60
2023-03-03T05:56:03.098Z,14.90
2023-03-03T05:58:29.929Z,14.80
2023-03-03T06:00:56.845Z,15.30
2023-03-03T06:03:23.481Z,16.60
2023-03-03T06:05:50.116Z,18.20
2023-03-03T06:08:16.675Z,16.90
2023-03-03T06:10:43.316Z,18.90
2023-03-03T06:13:10.183Z,16.10
2023-03-03T06:15:36.856Z,12.70
2023-03-03T06:18:03.764Z,14.00
2023-03-03T06:20:34.692Z,14.70
2023-03-03T06:23:01.534Z,14.40
2023-03-03T06:25:28.128Z,14.30
2023-03-03T06:27:54.761Z,12.80
2023-03-03T06:30:21.401Z,15.10
2023-03-03T06:32:48.099Z,12.70
2023-03-03T06:35:14.909Z,13.70
2023-03-03T06:37:41.653Z,14.90
2023-03-03T06:40:09.512Z,13.80
2023-03-03T06:42:36.850Z,11.50
2023-03-03T06:45:04.329Z,12.30
2023-03-03T06:47:30.985Z,12.20
2023-03-03T06:49:57.592Z,11.70
2023-03-03T06:52:26.486Z,11.80
2023-03-03T06:54:55.852Z,11.10
2023-03-03T06:57:31.626Z,10.10
2023-03-03T07:00:20.288Z,10.80
2023-03-03T07:03:27.021Z,10.10
2023-03-03T07:05:57.701Z,10.20
2023-03-03T07:08:25.126Z,10.00
2023-03-03T07:10:52.582Z,11.50
2023-03-03T07:13:28.213Z,11.30
2023-03-03T07:16:03.271Z,11.80
2023-03-03T07:18:45.876Z,12.80
2023-03-03T07:21:22.114Z,12.20
2023-03-03T07:23:51.938Z,12.00
2023-03-03T07:26:32.151Z,12.40
2023-03-03T07:29:27.413Z,12.80
2023-03-03T07:31:59.025Z,13.70
2023-03-03T07:34:39.896Z,13.00
2023-03-03T07:37:37.926Z,14.50
2023-03-03T07:40:38.813Z,13.10
2023-03-03T07:43:39.564Z,11.50
2023-03-03T07:46:36.068Z,13.20
2023-03-03T07:49:22.806Z,12.70
2023-03-03T07:52:00.919Z,14.10
2023-03-03T07:54:35.156Z,12.70
2023-03-03T07:57:26.676Z,13.90
2023-03-03T08:00:28.382Z,13.10
2023-03-03T08:03:05.665Z,13.10
2023-03-03T08:05:44.040Z,14.30
2023-03-03T08:08:30.750Z,13.90
2023-03-03T08:11:00.051Z,14.60
2023-03-03T08:13:32.608Z,14.20
2023-03-03T08:16:19.186Z,14.80
2023-03-03T08:18:52.620Z,13.90
2023-03-03T08:21:24.700Z,14.40
2023-03-03T08:23:52.994Z,14.60
2023-03-03T08:26:24.894Z,15.40
2023-03-03T08:28:52.773Z,15.20
2023-03-03T08:31:31.184Z,14.30
2023-03-03T08:34:05.306Z,15.30
2023-03-03T08:36:34.522Z,14.10
2023-03-03T08:39:02.820Z,16.00
2023-03-03T08:41:29.481Z,15.00
2023-03-03T08:43:56.031Z,12.50
2023-03-03T08:46:22.599Z,14.20
2023-03-03T08:48:49.384Z,13.90
2023-03-03T08:51:15.997Z,13.40
2023-03-03T08:53:42.510Z,14.40
2023-03-03T08:56:09.886Z,13.80
2023-03-03T08:58:36.828Z,12.20
2023-03-03T09:01:04.274Z,14.50
2023-03-03T09:03:30.903Z,12.20
2023-03-03T09:05:57.920Z,12.70
2023-03-03T09:08:24.595Z,13.70
2023-03-03T09:10:51.191Z,12.20
2023-03-03T09:13:19.214Z,12.00
2023-03-03T09:15:46.438Z,13.00
2023-03-03T09:18:21.773Z,11.70
2023-03-03T09:20:53.390Z,11.40
2023-03-03T09:23:41.399Z,12.40
2023-03-03T09:26:10.921Z,13.80
2023-03-03T09:28:37.443Z,13.20
2023-03-03T09:31:21.317Z,13.70
2023-03-03T09:33:51.307Z,12.90
2023-03-03T09:36:29.446Z,11.30
2023-03-03T09:38:57.644Z,12.40
2023-03-03T09:42:05.933Z,12.10
2023-03-03T09:44:51.039Z,12.20
2023-03-03T09:47:43.920Z,11.90
2023-03-03T09:50:29.470Z,12.00
2023-03-03T09:53:01.247Z,13.70
2023-03-03T09:55:53.039Z,13.40
2023-03-03T09:58:33.313Z,14.20
2023-03-03T10:01:18.256Z,14.20
2023-03-03T10:04:15.319Z,14.50
2023-03-03T10:07:07.387Z,13.80
2023-03-03T10:09:34.180Z,13.80
2023-03-03T10:12:25.155Z,12.90
2023-03-03T10:15:07.955Z,14.30
2023-03-03T10:17:51.932Z,14.30
2023-03-03T10:20:24.450Z,13.00
2023-03-03T10:23:00.689Z,15.20
2023-03-03T10:25:44.981Z,12.90
2023-03-03T10:28:44.241Z,14.10
2023-03-03T10:31:29.089Z,15.30
2023-03-03T10:34:33.403Z,15.60
2023-03-03T10:37:09.277Z,15.20
2023-03-03T10:39:56.773Z,16.10
2023-03-03T10:42:44.661Z,16.70
2023-03-03T10:45:40.987Z,17.60
2023-03-03T10:49:06.791Z,16.90
2023-03-03T10:51:54.850Z,15.70
2023-03-03T10:54:46.081Z,15.60
2023-03-03T10:57:47.090Z,17.10
2023-03-03T11:00:31.889Z,17.10
2023-03-03T11:03:46.686Z,17.60
2023-03-03T11:06:38.550Z,17.00
2023-03-03T11:09:30.634Z,18.10
2023-03-03T11:12:15.925Z,16.90
2023-03-03T11:15:18.905Z,17.80
2023-03-03T11:17:57.917Z,17.80
2023-03-03T11:20:52.369Z,17.20
2023-03-03T11:23:33.457Z,16.10
2023-03-03T11:26:15.395Z,17.40
2023-03-03T11:28:54.470Z,17.40
2023-03-03T11:31:55.428Z,16.90
2023-03-03T11:34:53.246Z,18.50
2023-03-03T11:38:07.390Z,17.50
2023-03-03T11:41:04.876Z,16.70
2023-03-03T11:43:46.387Z,16.20
2023-03-03T11:46:18.390Z,16.60
2023-03-03T11:49:01.269Z,16.60
2023-03-03T11:51:37.599Z,16.70
2023-03-03T11:54:14.630Z,16.30
2023-03-03T11:56:46.947Z,15.90
2023-03-03T11:59:31.219Z,15.90
2023-03-03T12:02:43.407Z,16.40
2023-03-03T12:05:30.590Z,15.70
2023-03-03T12:08:22.262Z,15.10
2023-03-03T12:11:10.636Z,15.60
2023-03-03T12:14:08.587Z,15.00
2023-03-03T12:16:55.931Z,15.50
2023-03-03T12:19:58.353Z,14.00
2023-03-03T12:23:07.600Z,15.50
2023-03-03T12:25:50.284Z,15.10
2023-03-03T12:28:35.903Z,14.40
2023-03-03T12:31:56.481Z,14.50
2023-03-03T12:34:49.972Z,13.80
2023-03-03T12:37:45.996Z,12.60
2023-03-03T12:40:31.490Z,14.10
2023-03-03T12:43:32.372Z,13.50
2023-03-03T12:46:42.495Z,13.90
2023-03-03T12:49:09.085Z,13.50
2023-03-03T12:52:20.649Z,13.20
2023-03-03T12:55:14.877Z,12.20
2023-03-03T12:57:44.469Z,12.50
2023-03-03T13:00:10.957Z,12.20
2023-03-03T13:02:56.118Z,12.20
2023-03-03T13:05:54.195Z,11.70
2023-03-03T13:08:47.644Z,12.40
2023-03-03T13:11:36.536Z,11.00
2023-03-03T13:14:24.265Z,11.30
2023-03-03T13:17:05.785Z,10.80
2023-03-03T13:20:03.488Z,11.70
2023-03-03T13:23:04.024Z,12.00
2023-03-03T13:25:45.954Z,12.70
2023-03-03T13:28:28.356Z,12.30
2023-03-03T13:31:19.400Z,18.30
2023-03-03T13:33:58.298Z,11.50
2023-03-03T13:36:30.922Z,11.10
2023-03-03T13:41:58.333Z,11.20
2023-03-03T13:44:40.137Z,11.40
2023-03-03T13:50:18.990Z,11.20
2023-03-03T13:53:13.731Z,10.10
2023-03-03T13:56:06.778Z,11.70
2023-03-03T13:59:12.620Z,10.50
2023-03-03T14:01:52.240Z,10.20
2023-03-03T14:04:58.893Z,11.30
2023-03-03T14:07:38.131Z,11.30
2023-03-03T14:10:04.778Z,12.40
2023-03-03T14:12:54.972Z,12.10
2023-03-03T14:15:36.297Z,13.00
2023-03-03T14:18:25.882Z,12.70
2023-03-03T14:20:54.969Z,12.60
2023-03-03T14:23:41.211Z,12.90
2023-03-03T14:26:10.554Z,11.50
2023-03-03T14:28:51.742Z,12.20
2023-03-03T14:31:38.817Z,11.80
2023-03-03T14:34:38.087Z,11.30
2023-03-03T14:37:27.625Z,11.10
2023-03-03T14:40:16.295Z,11.70
2023-03-03T14:43:07.304Z,11.60
2023-03-03T14:45:40.299Z,12.10
2023-03-03T14:48:13.463Z,10.90
2023-03-03T14:50:43.934Z,12.30
2023-03-03T14:53:23.061Z,11.80
2023-03-03T14:55:52.927Z,11.40
2023-03-03T14:58:41.177Z,11.10
2023-03-03T15:01:13.772Z,10.20
2023-03-03T15:04:09.416Z,11.00
2023-03-03T15:06:44.902Z,11.20
2023-03-03T15:09:43.619Z,11.70
2023-03-03T15:12:23.231Z,10.50
2023-03-03T15:15:05.080Z,11.70
2023-03-03T15:17:44.284Z,11.50
2023-03-03T15:20:38.868Z,13.40
2023-03-03T15:23:36.645Z,12.80
2023-03-03T15:26:16.267Z,12.80
2023-03-03T15:29:26.910Z,12.90
2023-03-03T15:32:18.965Z,12.00
2023-03-03T15:35:14.052Z,13.00
2023-03-03T15:37:49.781Z,14.10
2023-03-03T15:40:48.975Z,13.20
2023-03-03T15:43:37.200Z,12.60
2023-03-03T15:46:39.112Z,13.70
2023-03-03T15:49:46.684Z,12.40
2023-03-03T15:52:22.869Z,14.20
2023-03-03T15:55:24.903Z,13.60
2023-03-03T15:58:22.877Z,12.80
2023-03-03T16:01:26.489Z,12.50
2023-03-03T16:04:06.543Z,12.90
2023-03-03T16:06:37.881Z,11.60
2023-03-03T16:09:31.838Z,12.60
2023-03-03T16:12:17.187Z,12.30
2023-03-03T16:15:58.086Z,13.90
2023-03-03T16:18:58.438Z,14.70
2023-03-03T16:22:09.348Z,13.50
2023-03-03T16:24:51.390Z,13.10
2023-03-03T16:27:24.573Z,14.90
2023-03-03T16:33:29.415Z,13.40
2023-03-03T16:37:01.214Z,13.60
2023-03-03T16:39:49.820Z,13.80
2023-03-03T16:42:26.283Z,14.40
2023-03-03T16:45:16.613Z,15.50
2023-03-03T16:48:20.891Z,14.80
2023-03-03T16:51:06.036Z,14.30
2023-03-03T16:54:07.914Z,14.80
2023-03-03T16:57:07.933Z,15.20
2023-03-03T16:59:59.380Z,15.10
2023-03-03T17:02:44.559Z,15.20
2023-03-03T17:05:57.261Z,14.40
2023-03-03T17:08:24.379Z,17.60
2023-03-03T17:10:52.520Z,17.50
2023-03-03T17:13:46.740Z,16.40
2023-03-03T17:16:46.229Z,16.80
2023-03-03T17:19:30.272Z,15.40
2023-03-03T17:22:33.686Z,17.30
2023-03-03T17:25:38.963Z,15.50
2023-03-03T17:28:30.947Z,15.50
2023-03-03T17:31:12.876Z,16.80
2023-03-03T17:33:55.291Z,17.30
2023-03-03T17:36:31.237Z,16.90
2023-03-03T17:39:04.139Z,17.10
2023-03-03T17:41:45.976Z,16.80
2023-03-03T17:44:23.084Z,17.50
2023-03-03T17:47:02.208Z,18.30
2023-03-03T17:50:26.767Z,16.50
2023-03-03T17:53:15.835Z,18.90
2023-03-03T17:56:09.305Z,21.50
2023-03-03T17:58:56.042Z,25.70
2023-03-03T18:01:31.795Z,17.50
2023-03-03T18:04:28.767Z,20.20
2023-03-03T18:07:15.469Z,17.20
2023-03-03T18:10:37.010Z,19.30
2023-03-03T18:13:38.887Z,22.30
2023-03-03T18:16:33.872Z,23.90
2023-03-03T18:19:48.739Z,19.40
2023-03-03T18:22:30.394Z,19.90
2023-03-03T18:25:12.414Z,19.70
2023-03-03T18:27:42.457Z,21.40
2023-03-03T18:30:19.831Z,20.50
2023-03-03T18:32:55.620Z,23.30
2023-03-03T18:35:39.026Z,22.50
2023-03-03T18:38:15.161Z,22.30
2023-03-03T18:41:11.902Z,19.60
2023-03-03T18:43:44.557Z,22.00
2023-03-03T18:49:06.894Z,18.30
2023-03-03T18:51:33.896Z,16.30
2023-03-03T18:54:30.501Z,18.90
2023-03-03T18:56:59.291Z,18.30
2023-03-03T18:59:35.348Z,18.20
2023-03-03T19:02:17.447Z,16.60
2023-03-03T19:05:06.123Z,17.80
2023-03-03T19:07:39.043Z,16.80
2023-03-03T19:10:22.761Z,16.70
2023-03-03T19:12:59.342Z,17.10
2023-03-03T19:15:29.573Z,17.40
2023-03-03T19:18:03.318Z,18.20
2023-03-03T19:20:39.772Z,18.90
2023-03-03T19:23:14.644Z,17.80
2023-03-03T19:25:42.201Z,17.00
2023-03-03T19:28:14.621Z,18.50
2023-03-03T19:31:04.430Z,17.90
2023-03-03T19:33:52.872Z,17.10
2023-03-03T19:36:53.067Z,17.70
2023-03-03T19:39:56.152Z,17.10
2023-03-03T19:42:50.703Z,16.60
2023-03-03T19:45:42.217Z,16.50
2023-03-03T19:48:28.923Z,17.30
2023-03-03T19:51:20.160Z,17.20
2023-03-03T19:54:13.528Z,17.20
2023-03-03T19:59:40.162Z,15.80
2023-03-03T20:02:42.226Z,17.60
2023-03-03T20:05:42.227Z,17.40
2023-03-03T20:08:21.151Z,17.90
2023-03-03T20:11:19.772Z,18.10
2023-03-03T20:14:01.662Z,19.90
2023-03-03T20:16:40.760Z,21.10
2023-03-03T20:19:22.836Z,21.50
2023-03-03T20:21:58.850Z,20.80
2023-03-03T20:24:42.180Z,22.20
2023-03-03T20:27:19.934Z,21.70
2023-03-03T20:30:05.446Z,20.30
2023-03-03T20:33:15.124Z,19.40
2023-03-03T20:36:09.199Z,20.30
2023-03-03T20:39:06.994Z,18.90
2023-03-03T20:41:59.438Z,18.50
2023-03-03T20:44:52.702Z,17.90
2023-03-03T20:50:36.619Z,18.20
2023-03-03T20:53:28.719Z,17.00
2023-03-03T20:56:07.660Z,17.70
2023-03-03T20:59:27.475Z,19.10
2023-03-03T21:02:15.736Z,16.10
2023-03-03T21:04:42.590Z,17.80
2023-03-03T21:07:23.616Z,17.80
2023-03-03T21:09:50.530Z,18.30
2023-03-03T21:12:30.136Z,18.00
2023-03-03T21:15:24.278Z,18.60
2023-03-03T21:17:51.487Z,17.60
2023-03-03T21:20:38.673Z,19.20
2023-03-03T21:23:05.512Z,17.20
2023-03-03T21:25:45.183Z,18.20
2023-03-03T21:28:44.635Z,17.30
2023-03-03T21:31:14.138Z,17.90
2023-03-03T21:33:54.849Z,18.10
2023-03-03T21:36:38.017Z,19.20
2023-03-03T21:39:31.682Z,18.10
2023-03-03T21:42:02.581Z,18.80
2023-03-03T21:44:46.303Z,20.10
2023-03-03T21:47:24.561Z,18.40
2023-03-03T21:49:55.270Z,17.10
2023-03-03T21:52:22.677Z,18.70
2023-03-03T21:54:50.787Z,17.20
2023-03-03T21:57:17.771Z,18.20
2023-03-03T21:59:45.775Z,18.00
2023-03-03T22:02:12.543Z,17.50
2023-03-03T22:04:40.465Z,17.80
2023-03-03T22:07:08.813Z,17.50
2023-03-03T22:09:36.814Z,18.30
2023-03-03T22:12:04.948Z,19.10
2023-03-03T22:14:31.855Z,17.90
2023-03-03T22:16:58.728Z,17.20
2023-03-03T22:19:25.421Z,17.60
2023-03-03T22:21:52.166Z,17.30
2023-03-03T22:24:19.190Z,18.10
2023-03-03T22:26:45.977Z,19.60
2023-03-03T22:29:15.953Z,17.70
2023-03-03T22:31:42.758Z,18.60
2023-03-03T22:34:10.257Z,18.90
2023-03-03T22:36:37.291Z,17.60
2023-03-03T22:39:04.067Z,18.20
2023-03-03T22:41:31.132Z,16.30
2023-03-03T22:43:57.915Z,15.00
2023-03-03T22:46:25.485Z,16.90
2023-03-03T22:48:52.237Z,16.30
2023-03-03T22:51:21.444Z,14.60
2023-03-03T22:53:48.230Z,13.50
2023-03-03T22:56:15.063Z,15.40
2023-03-03T22:58:41.663Z,15.30
2023-03-03T23:01:08.138Z,14.80
2023-03-03T23:03:34.835Z,14.70
2023-03-03T23:06:01.414Z,13.50
2023-03-03T23:08:28.042Z,14.70
2023-03-03T23:10:54.740Z,14.50
2023-03-03T23:13:21.339Z,14.00
2023-03-03T23:15:48.110Z,13.30
2023-03-03T23:18:15.122Z,13.90
2023-03-03T23:20:45.167Z,14.00
2023-03-03T23:23:11.996Z,13.50
2023-03-03T23:25:38.620Z,13.00
2023-03-03T23:28:05.706Z,12.30
2023-03-03T23:30:32.333Z,13.60
2023-03-03T23:32:59.202Z,13.50
2023-03-03T23:35:25.867Z,13.10
2023-03-03T23:37:52.977Z,12.60
2023-03-03T23:40:19.791Z,12.70
2023-03-03T23:42:46.559Z,12.20
2023-03-03T23:45:13.836Z,13.70
2023-03-03T23:47:41.132Z,13.80
2023-03-03T23:50:10.097Z,12.80
2023-03-03T23:52:36.768Z,12.90
2023-03-03T23:55:04.936Z,13.00
2023-03-03T23:57:31.588Z,13.20
2023-03-03T23:59:58.374Z,12.40
